sensor_id;sensor_type;location;lat;lon;timestamp;P1;durP1;ratioP1;P2;durP2;ratioP2
9671;SDS011;4874;43.568;27.824;2023-03-17T00:01:39;8.48;;;4.38;;
9671;SDS011;4874;43.568;27.824;2023-03-17T00:06:37;6.95;;;4.07;;
9671;SDS011;4874;43.568;27.824;2023-03-17T00:09:12;6.20;;;4.00;;
9671;SDS011;4874;43.568;27.824;2023-03-17T00:11:40;7.78;;;4.05;;
9671;SDS011;4874;43.568;27.824;2023-03-17T00:14:08;7.28;;;4.28;;
9671;SDS011;4874;43.568;27.824;2023-03-17T00:16:38;6.80;;;3.80;;
9671;SDS011;4874;43.568;27.824;2023-03-17T00:19:14;5.20;;;3.30;;
9671;SDS011;4874;43.568;27.824;2023-03-17T00:21:55;7.60;;;3.28;;
9671;SDS011;4874;43.568;27.824;2023-03-17T00:24:22;7.22;;;3.70;;
9671;SDS011;4874;43.568;27.824;2023-03-17T00:26:49;6.65;;;3.25;;
9671;SDS011;4874;43.568;27.824;2023-03-17T00:31:43;7.15;;;3.15;;
9671;SDS011;4874;43.568;27.824;2023-03-17T00:34:11;6.85;;;3.17;;
9671;SDS011;4874;43.568;27.824;2023-03-17T00:36:42;6.43;;;3.47;;
9671;SDS011;4874;43.568;27.824;2023-03-17T00:39:13;4.85;;;3.17;;
9671;SDS011;4874;43.568;27.824;2023-03-17T00:41:39;5.75;;;3.42;;
9671;SDS011;4874;43.568;27.824;2023-03-17T00:44:06;8.73;;;4.07;;
9671;SDS011;4874;43.568;27.824;2023-03-17T00:46:32;7.70;;;3.70;;
9671;SDS011;4874;43.568;27.824;2023-03-17T00:49:13;5.82;;;3.47;;
9671;SDS011;4874;43.568;27.824;2023-03-17T00:51:46;6.32;;;3.60;;
9671;SDS011;4874;43.568;27.824;2023-03-17T00:54:13;6.68;;;4.07;;
9671;SDS011;4874;43.568;27.824;2023-03-17T00:56:40;6.57;;;3.50;;
9671;SDS011;4874;43.568;27.824;2023-03-17T01:02:14;7.10;;;4.13;;
9671;SDS011;4874;43.568;27.824;2023-03-17T01:07:17;6.18;;;3.35;;
9671;SDS011;4874;43.568;27.824;2023-03-17T01:12:11;5.53;;;3.40;;
9671;SDS011;4874;43.568;27.824;2023-03-17T01:14:39;5.97;;;3.47;;
9671;SDS011;4874;43.568;27.824;2023-03-17T01:19:40;6.97;;;3.20;;
9671;SDS011;4874;43.568;27.824;2023-03-17T01:22:07;6.68;;;3.58;;
9671;SDS011;4874;43.568;27.824;2023-03-17T01:24:35;8.98;;;3.65;;
9671;SDS011;4874;43.568;27.824;2023-03-17T01:27:02;5.97;;;3.35;;
9671;SDS011;4874;43.568;27.824;2023-03-17T01:29:30;6.40;;;3.85;;
9671;SDS011;4874;43.568;27.824;2023-03-17T01:31:56;7.28;;;3.05;;
9671;SDS011;4874;43.568;27.824;2023-03-17T01:34:23;5.80;;;3.63;;
9671;SDS011;4874;43.568;27.824;2023-03-17T01:36:50;6.57;;;3.50;;
9671;SDS011;4874;43.568;27.824;2023-03-17T01:39:17;7.65;;;3.67;;
9671;SDS011;4874;43.568;27.824;2023-03-17T01:41:45;5.63;;;3.10;;
9671;SDS011;4874;43.568;27.824;2023-03-17T01:44:16;6.45;;;2.95;;
9671;SDS011;4874;43.568;27.824;2023-03-17T01:46:44;7.80;;;3.70;;
9671;SDS011;4874;43.568;27.824;2023-03-17T01:51:48;6.78;;;3.45;;
9671;SDS011;4874;43.568;27.824;2023-03-17T01:54:42;5.90;;;3.40;;
9671;SDS011;4874;43.568;27.824;2023-03-17T01:57:13;4.38;;;2.97;;
9671;SDS011;4874;43.568;27.824;2023-03-17T01:59:43;5.38;;;2.70;;
9671;SDS011;4874;43.568;27.824;2023-03-17T02:02:13;5.90;;;2.83;;
9671;SDS011;4874;43.568;27.824;2023-03-17T02:04:43;4.30;;;2.70;;
9671;SDS011;4874;43.568;27.824;2023-03-17T02:07:10;5.28;;;3.53;;
9671;SDS011;4874;43.568;27.824;2023-03-17T02:09:37;6.28;;;3.53;;
9671;SDS011;4874;43.568;27.824;2023-03-17T02:12:05;5.18;;;3.08;;
9671;SDS011;4874;43.568;27.824;2023-03-17T02:14:33;5.75;;;3.00;;
9671;SDS011;4874;43.568;27.824;2023-03-17T02:19:26;7.97;;;3.30;;
9671;SDS011;4874;43.568;27.824;2023-03-17T02:21:57;4.53;;;2.40;;
9671;SDS011;4874;43.568;27.824;2023-03-17T02:24:27;5.13;;;3.20;;
9671;SDS011;4874;43.568;27.824;2023-03-17T02:27:08;6.03;;;2.90;;
9671;SDS011;4874;43.568;27.824;2023-03-17T02:29:38;5.28;;;3.13;;
9671;SDS011;4874;43.568;27.824;2023-03-17T02:32:05;5.63;;;2.80;;
9671;SDS011;4874;43.568;27.824;2023-03-17T02:34:32;3.92;;;2.88;;
9671;SDS011;4874;43.568;27.824;2023-03-17T02:36:59;4.35;;;2.83;;
9671;SDS011;4874;43.568;27.824;2023-03-17T02:39:26;5.68;;;2.90;;
9671;SDS011;4874;43.568;27.824;2023-03-17T02:44:20;5.53;;;2.50;;
9671;SDS011;4874;43.568;27.824;2023-03-17T02:46:47;5.97;;;2.75;;
9671;SDS011;4874;43.568;27.824;2023-03-17T02:49:14;7.95;;;2.60;;
9671;SDS011;4874;43.568;27.824;2023-03-17T02:51:41;7.90;;;2.95;;
9671;SDS011;4874;43.568;27.824;2023-03-17T02:54:08;5.82;;;2.63;;
9671;SDS011;4874;43.568;27.824;2023-03-17T02:59:02;4.53;;;2.38;;
9671;SDS011;4874;43.568;27.824;2023-03-17T03:01:29;5.32;;;2.35;;
9671;SDS011;4874;43.568;27.824;2023-03-17T03:06:23;5.53;;;2.70;;
9671;SDS011;4874;43.568;27.824;2023-03-17T03:08:50;5.05;;;2.20;;
9671;SDS011;4874;43.568;27.824;2023-03-17T03:11:18;8.23;;;3.53;;
9671;SDS011;4874;43.568;27.824;2023-03-17T03:13:45;7.63;;;2.60;;
9671;SDS011;4874;43.568;27.824;2023-03-17T03:16:12;5.65;;;2.63;;
9671;SDS011;4874;43.568;27.824;2023-03-17T03:21:05;4.97;;;2.40;;
9671;SDS011;4874;43.568;27.824;2023-03-17T03:23:33;4.85;;;2.25;;
9671;SDS011;4874;43.568;27.824;2023-03-17T03:25:59;5.55;;;2.65;;
9671;SDS011;4874;43.568;27.824;2023-03-17T03:28:26;5.45;;;2.70;;
9671;SDS011;4874;43.568;27.824;2023-03-17T03:30:53;4.75;;;2.40;;
9671;SDS011;4874;43.568;27.824;2023-03-17T03:33:20;4.10;;;2.15;;
9671;SDS011;4874;43.568;27.824;2023-03-17T03:35:47;5.07;;;2.70;;
9671;SDS011;4874;43.568;27.824;2023-03-17T03:38:14;5.20;;;2.40;;
9671;SDS011;4874;43.568;27.824;2023-03-17T03:40:41;4.78;;;2.40;;
9671;SDS011;4874;43.568;27.824;2023-03-17T03:43:08;4.40;;;1.98;;
9671;SDS011;4874;43.568;27.824;2023-03-17T03:45:47;4.38;;;2.35;;
9671;SDS011;4874;43.568;27.824;2023-03-17T03:48:14;5.68;;;2.60;;
9671;SDS011;4874;43.568;27.824;2023-03-17T03:50:41;4.13;;;2.20;;
9671;SDS011;4874;43.568;27.824;2023-03-17T03:53:08;4.85;;;2.33;;
9671;SDS011;4874;43.568;27.824;2023-03-17T03:55:35;3.92;;;2.15;;
9671;SDS011;4874;43.568;27.824;2023-03-17T03:58:01;5.43;;;2.50;;
9671;SDS011;4874;43.568;27.824;2023-03-17T04:00:28;5.95;;;3.38;;
9671;SDS011;4874;43.568;27.824;2023-03-17T04:02:55;5.82;;;3.10;;
9671;SDS011;4874;43.568;27.824;2023-03-17T04:05:22;5.22;;;2.50;;
9671;SDS011;4874;43.568;27.824;2023-03-17T04:07:49;4.60;;;2.00;;
9671;SDS011;4874;43.568;27.824;2023-03-17T04:10:39;4.75;;;2.10;;
9671;SDS011;4874;43.568;27.824;2023-03-17T04:13:06;3.83;;;2.40;;
9671;SDS011;4874;43.568;27.824;2023-03-17T04:15:33;4.95;;;2.42;;
9671;SDS011;4874;43.568;27.824;2023-03-17T04:18:01;4.80;;;2.05;;
9671;SDS011;4874;43.568;27.824;2023-03-17T04:20:30;5.30;;;2.50;;
9671;SDS011;4874;43.568;27.824;2023-03-17T04:22:58;4.20;;;2.15;;
9671;SDS011;4874;43.568;27.824;2023-03-17T04:25:25;5.53;;;2.25;;
9671;SDS011;4874;43.568;27.824;2023-03-17T04:30:18;4.53;;;2.17;;
9671;SDS011;4874;43.568;27.824;2023-03-17T04:32:45;10.10;;;3.47;;
9671;SDS011;4874;43.568;27.824;2023-03-17T04:35:13;8.05;;;3.20;;
9671;SDS011;4874;43.568;27.824;2023-03-17T04:37:42;4.85;;;2.40;;
9671;SDS011;4874;43.568;27.824;2023-03-17T04:40:10;6.00;;;3.67;;
9671;SDS011;4874;43.568;27.824;2023-03-17T04:42:38;7.40;;;3.00;;
9671;SDS011;4874;43.568;27.824;2023-03-17T04:45:06;5.90;;;2.45;;
9671;SDS011;4874;43.568;27.824;2023-03-17T04:47:34;4.55;;;2.17;;
9671;SDS011;4874;43.568;27.824;2023-03-17T04:50:01;6.68;;;2.60;;
9671;SDS011;4874;43.568;27.824;2023-03-17T04:52:29;6.90;;;2.83;;
9671;SDS011;4874;43.568;27.824;2023-03-17T04:54:56;5.88;;;2.53;;
9671;SDS011;4874;43.568;27.824;2023-03-17T04:59:49;6.63;;;3.25;;
9671;SDS011;4874;43.568;27.824;2023-03-17T05:02:17;5.13;;;2.55;;
9671;SDS011;4874;43.568;27.824;2023-03-17T05:04:44;6.90;;;2.53;;
9671;SDS011;4874;43.568;27.824;2023-03-17T05:07:11;6.38;;;2.50;;
9671;SDS011;4874;43.568;27.824;2023-03-17T05:09:38;6.72;;;2.53;;
9671;SDS011;4874;43.568;27.824;2023-03-17T05:14:33;9.18;;;2.85;;
9671;SDS011;4874;43.568;27.824;2023-03-17T05:17:01;5.43;;;2.95;;
9671;SDS011;4874;43.568;27.824;2023-03-17T05:19:28;7.35;;;3.00;;
9671;SDS011;4874;43.568;27.824;2023-03-17T05:21:54;9.55;;;4.25;;
9671;SDS011;4874;43.568;27.824;2023-03-17T05:24:21;6.68;;;3.55;;
9671;SDS011;4874;43.568;27.824;2023-03-17T05:29:15;6.20;;;2.90;;
9671;SDS011;4874;43.568;27.824;2023-03-17T05:34:08;3.83;;;1.88;;
9671;SDS011;4874;43.568;27.824;2023-03-17T05:36:35;8.02;;;2.35;;
9671;SDS011;4874;43.568;27.824;2023-03-17T05:39:03;5.72;;;2.45;;
9671;SDS011;4874;43.568;27.824;2023-03-17T05:41:30;6.40;;;2.70;;
9671;SDS011;4874;43.568;27.824;2023-03-17T05:46:24;5.82;;;2.50;;
9671;SDS011;4874;43.568;27.824;2023-03-17T05:48:51;7.22;;;3.20;;
9671;SDS011;4874;43.568;27.824;2023-03-17T05:51:18;7.80;;;2.70;;
9671;SDS011;4874;43.568;27.824;2023-03-17T05:53:45;6.10;;;2.30;;
9671;SDS011;4874;43.568;27.824;2023-03-17T05:56:12;6.15;;;2.50;;
9671;SDS011;4874;43.568;27.824;2023-03-17T06:01:05;6.20;;;2.00;;
9671;SDS011;4874;43.568;27.824;2023-03-17T06:03:33;5.80;;;2.63;;
9671;SDS011;4874;43.568;27.824;2023-03-17T06:06:00;7.20;;;2.38;;
9671;SDS011;4874;43.568;27.824;2023-03-17T06:08:26;5.78;;;2.60;;
9671;SDS011;4874;43.568;27.824;2023-03-17T06:10:53;7.38;;;2.90;;
9671;SDS011;4874;43.568;27.824;2023-03-17T06:13:20;5.40;;;3.03;;
9671;SDS011;4874;43.568;27.824;2023-03-17T06:15:47;6.20;;;2.90;;
9671;SDS011;4874;43.568;27.824;2023-03-17T06:18:17;5.45;;;2.10;;
9671;SDS011;4874;43.568;27.824;2023-03-17T06:20:45;11.43;;;2.50;;
9671;SDS011;4874;43.568;27.824;2023-03-17T06:23:12;4.57;;;1.67;;
9671;SDS011;4874;43.568;27.824;2023-03-17T06:25:38;6.97;;;2.67;;
9671;SDS011;4874;43.568;27.824;2023-03-17T06:28:05;4.57;;;1.77;;
9671;SDS011;4874;43.568;27.824;2023-03-17T06:32:59;9.68;;;2.88;;
9671;SDS011;4874;43.568;27.824;2023-03-17T06:35:27;22.35;;;3.63;;
9671;SDS011;4874;43.568;27.824;2023-03-17T06:37:55;4.50;;;1.88;;
9671;SDS011;4874;43.568;27.824;2023-03-17T06:40:23;4.85;;;1.88;;
9671;SDS011;4874;43.568;27.824;2023-03-17T06:42:50;18.42;;;3.75;;
9671;SDS011;4874;43.568;27.824;2023-03-17T06:45:16;6.28;;;1.90;;
9671;SDS011;4874;43.568;27.824;2023-03-17T06:47:43;26.67;;;4.40;;
9671;SDS011;4874;43.568;27.824;2023-03-17T06:52:37;4.03;;;2.15;;
9671;SDS011;4874;43.568;27.824;2023-03-17T06:55:05;5.53;;;1.90;;
9671;SDS011;4874;43.568;27.824;2023-03-17T06:57:32;6.18;;;2.05;;
9671;SDS011;4874;43.568;27.824;2023-03-17T06:59:59;6.47;;;2.15;;
9671;SDS011;4874;43.568;27.824;2023-03-17T07:02:26;3.85;;;1.42;;
9671;SDS011;4874;43.568;27.824;2023-03-17T07:07:19;5.32;;;2.10;;
9671;SDS011;4874;43.568;27.824;2023-03-17T07:12:13;9.63;;;1.98;;
9671;SDS011;4874;43.568;27.824;2023-03-17T07:14:41;4.13;;;1.65;;
9671;SDS011;4874;43.568;27.824;2023-03-17T07:17:11;3.42;;;1.45;;
9671;SDS011;4874;43.568;27.824;2023-03-17T07:19:39;4.03;;;1.65;;
9671;SDS011;4874;43.568;27.824;2023-03-17T07:22:06;6.82;;;3.10;;
9671;SDS011;4874;43.568;27.824;2023-03-17T07:24:34;5.93;;;2.10;;
9671;SDS011;4874;43.568;27.824;2023-03-17T07:29:28;4.78;;;1.60;;
9671;SDS011;4874;43.568;27.824;2023-03-17T07:31:55;3.97;;;1.55;;
9671;SDS011;4874;43.568;27.824;2023-03-17T07:34:21;5.07;;;1.33;;
9671;SDS011;4874;43.568;27.824;2023-03-17T07:36:48;4.78;;;1.55;;
9671;SDS011;4874;43.568;27.824;2023-03-17T07:41:42;7.45;;;1.60;;
9671;SDS011;4874;43.568;27.824;2023-03-17T07:44:09;5.38;;;1.40;;
9671;SDS011;4874;43.568;27.824;2023-03-17T07:46:36;4.78;;;1.65;;
9671;SDS011;4874;43.568;27.824;2023-03-17T07:49:04;4.28;;;1.75;;
9671;SDS011;4874;43.568;27.824;2023-03-17T07:51:31;19.70;;;2.67;;
9671;SDS011;4874;43.568;27.824;2023-03-17T07:53:58;4.30;;;1.60;;
9671;SDS011;4874;43.568;27.824;2023-03-17T07:56:29;3.95;;;1.60;;
9671;SDS011;4874;43.568;27.824;2023-03-17T07:58:57;4.95;;;1.85;;
9671;SDS011;4874;43.568;27.824;2023-03-17T08:01:25;2.92;;;1.30;;
9671;SDS011;4874;43.568;27.824;2023-03-17T08:03:52;3.30;;;1.33;;
9671;SDS011;4874;43.568;27.824;2023-03-17T08:06:20;5.53;;;1.58;;
9671;SDS011;4874;43.568;27.824;2023-03-17T08:08:48;3.40;;;0.95;;
9671;SDS011;4874;43.568;27.824;2023-03-17T08:11:14;3.30;;;1.40;;
9671;SDS011;4874;43.568;27.824;2023-03-17T08:13:42;5.50;;;2.13;;
9671;SDS011;4874;43.568;27.824;2023-03-17T08:18:36;4.45;;;1.77;;
9671;SDS011;4874;43.568;27.824;2023-03-17T08:21:03;3.65;;;1.48;;
9671;SDS011;4874;43.568;27.824;2023-03-17T08:23:30;3.42;;;1.52;;
9671;SDS011;4874;43.568;27.824;2023-03-17T08:25:58;3.38;;;1.40;;
9671;SDS011;4874;43.568;27.824;2023-03-17T08:28:28;2.22;;;0.98;;
9671;SDS011;4874;43.568;27.824;2023-03-17T08:31:09;16.90;;;2.50;;
9671;SDS011;4874;43.568;27.824;2023-03-17T08:33:39;7.55;;;2.70;;
9671;SDS011;4874;43.568;27.824;2023-03-17T08:36:08;3.38;;;1.52;;
9671;SDS011;4874;43.568;27.824;2023-03-17T08:38:36;3.47;;;1.58;;
9671;SDS011;4874;43.568;27.824;2023-03-17T08:41:06;3.65;;;1.65;;
9671;SDS011;4874;43.568;27.824;2023-03-17T08:43:35;3.92;;;1.38;;
9671;SDS011;4874;43.568;27.824;2023-03-17T08:46:06;6.25;;;1.20;;
9671;SDS011;4874;43.568;27.824;2023-03-17T08:48:38;8.43;;;1.58;;
9671;SDS011;4874;43.568;27.824;2023-03-17T08:51:05;4.45;;;1.58;;
9671;SDS011;4874;43.568;27.824;2023-03-17T08:53:32;9.55;;;2.40;;
9671;SDS011;4874;43.568;27.824;2023-03-17T08:56:00;4.47;;;2.05;;
9671;SDS011;4874;43.568;27.824;2023-03-17T08:58:29;5.38;;;2.78;;
9671;SDS011;4874;43.568;27.824;2023-03-17T09:00:59;30.33;;;5.10;;
9671;SDS011;4874;43.568;27.824;2023-03-17T09:03:28;4.50;;;1.80;;
9671;SDS011;4874;43.568;27.824;2023-03-17T09:05:55;3.53;;;1.65;;
9671;SDS011;4874;43.568;27.824;2023-03-17T09:08:23;6.60;;;1.73;;
9671;SDS011;4874;43.568;27.824;2023-03-17T09:10:50;3.40;;;1.77;;
9671;SDS011;4874;43.568;27.824;2023-03-17T09:13:20;2.30;;;1.25;;
9671;SDS011;4874;43.568;27.824;2023-03-17T09:15:48;5.82;;;2.20;;
9671;SDS011;4874;43.568;27.824;2023-03-17T09:18:17;3.45;;;1.75;;
9671;SDS011;4874;43.568;27.824;2023-03-17T09:20:47;4.50;;;1.65;;
9671;SDS011;4874;43.568;27.824;2023-03-17T09:25:41;4.85;;;1.90;;
9671;SDS011;4874;43.568;27.824;2023-03-17T09:28:09;10.93;;;1.90;;
9671;SDS011;4874;43.568;27.824;2023-03-17T09:30:38;4.97;;;1.55;;
9671;SDS011;4874;43.568;27.824;2023-03-17T09:33:08;2.50;;;1.20;;
9671;SDS011;4874;43.568;27.824;2023-03-17T09:35:35;5.47;;;1.67;;
9671;SDS011;4874;43.568;27.824;2023-03-17T09:38:03;3.90;;;1.73;;
9671;SDS011;4874;43.568;27.824;2023-03-17T09:40:31;2.20;;;1.20;;
9671;SDS011;4874;43.568;27.824;2023-03-17T09:45:43;3.58;;;1.65;;
9671;SDS011;4874;43.568;27.824;2023-03-17T09:50:58;10.82;;;2.05;;
9671;SDS011;4874;43.568;27.824;2023-03-17T09:56:19;6.05;;;1.77;;
9671;SDS011;4874;43.568;27.824;2023-03-17T09:59:18;4.00;;;1.65;;
9671;SDS011;4874;43.568;27.824;2023-03-17T10:01:48;9.85;;;2.92;;
9671;SDS011;4874;43.568;27.824;2023-03-17T10:04:15;6.80;;;1.75;;
9671;SDS011;4874;43.568;27.824;2023-03-17T10:06:44;7.15;;;2.13;;
9671;SDS011;4874;43.568;27.824;2023-03-17T10:09:32;4.30;;;1.98;;
9671;SDS011;4874;43.568;27.824;2023-03-17T10:14:53;3.20;;;1.63;;
9671;SDS011;4874;43.568;27.824;2023-03-17T10:17:41;3.97;;;1.70;;
9671;SDS011;4874;43.568;27.824;2023-03-17T10:22:56;5.72;;;2.10;;
9671;SDS011;4874;43.568;27.824;2023-03-17T10:25:28;3.45;;;1.92;;
9671;SDS011;4874;43.568;27.824;2023-03-17T10:28:04;3.35;;;1.67;;
9671;SDS011;4874;43.568;27.824;2023-03-17T10:30:41;3.70;;;2.13;;
9671;SDS011;4874;43.568;27.824;2023-03-17T10:33:09;7.38;;;2.10;;
9671;SDS011;4874;43.568;27.824;2023-03-17T10:35:36;4.43;;;1.80;;
9671;SDS011;4874;43.568;27.824;2023-03-17T10:38:15;4.25;;;1.70;;
9671;SDS011;4874;43.568;27.824;2023-03-17T10:40:58;4.45;;;2.08;;
9671;SDS011;4874;43.568;27.824;2023-03-17T10:43:29;4.80;;;1.98;;
9671;SDS011;4874;43.568;27.824;2023-03-17T10:46:02;4.50;;;2.13;;
9671;SDS011;4874;43.568;27.824;2023-03-17T10:48:35;4.15;;;1.83;;
9671;SDS011;4874;43.568;27.824;2023-03-17T10:51:06;3.65;;;1.60;;
9671;SDS011;4874;43.568;27.824;2023-03-17T10:53:38;3.95;;;1.67;;
9671;SDS011;4874;43.568;27.824;2023-03-17T10:56:09;2.95;;;1.55;;
9671;SDS011;4874;43.568;27.824;2023-03-17T10:58:47;4.05;;;1.95;;
9671;SDS011;4874;43.568;27.824;2023-03-17T11:01:17;4.38;;;1.63;;
9671;SDS011;4874;43.568;27.824;2023-03-17T11:04:01;4.10;;;1.70;;
9671;SDS011;4874;43.568;27.824;2023-03-17T11:06:32;14.77;;;2.53;;
9671;SDS011;4874;43.568;27.824;2023-03-17T11:09:07;4.57;;;1.73;;
9671;SDS011;4874;43.568;27.824;2023-03-17T11:11:43;42.15;;;6.45;;
9671;SDS011;4874;43.568;27.824;2023-03-17T11:14:12;6.40;;;1.95;;
9671;SDS011;4874;43.568;27.824;2023-03-17T11:16:52;7.53;;;1.58;;
9671;SDS011;4874;43.568;27.824;2023-03-17T11:24:55;3.88;;;1.33;;
9671;SDS011;4874;43.568;27.824;2023-03-17T11:27:37;4.32;;;1.45;;
9671;SDS011;4874;43.568;27.824;2023-03-17T11:32:56;13.35;;;2.22;;
9671;SDS011;4874;43.568;27.824;2023-03-17T11:35:37;9.13;;;3.28;;
9671;SDS011;4874;43.568;27.824;2023-03-17T11:38:15;4.20;;;1.42;;
9671;SDS011;4874;43.568;27.824;2023-03-17T11:46:28;3.83;;;1.67;;
9671;SDS011;4874;43.568;27.824;2023-03-17T11:52:47;4.75;;;1.52;;
9671;SDS011;4874;43.568;27.824;2023-03-17T11:57:32;3.90;;;1.80;;
9671;SDS011;4874;43.568;27.824;2023-03-17T12:00:19;7.30;;;1.50;;
9671;SDS011;4874;43.568;27.824;2023-03-17T12:05:44;9.43;;;2.03;;
9671;SDS011;4874;43.568;27.824;2023-03-17T12:11:01;7.80;;;1.30;;
9671;SDS011;4874;43.568;27.824;2023-03-17T12:13:47;13.73;;;2.63;;
9671;SDS011;4874;43.568;27.824;2023-03-17T12:18:56;7.82;;;1.90;;
9671;SDS011;4874;43.568;27.824;2023-03-17T12:27:35;6.75;;;1.58;;
9671;SDS011;4874;43.568;27.824;2023-03-17T12:33:21;3.83;;;1.58;;
9671;SDS011;4874;43.568;27.824;2023-03-17T12:35:54;4.03;;;1.40;;
9671;SDS011;4874;43.568;27.824;2023-03-17T12:38:34;3.67;;;1.63;;
9671;SDS011;4874;43.568;27.824;2023-03-17T12:43:56;6.68;;;2.47;;
9671;SDS011;4874;43.568;27.824;2023-03-17T12:55:11;7.40;;;2.28;;
9671;SDS011;4874;43.568;27.824;2023-03-17T12:57:41;11.00;;;1.63;;
9671;SDS011;4874;43.568;27.824;2023-03-17T13:00:22;11.85;;;2.92;;
9671;SDS011;4874;43.568;27.824;2023-03-17T13:05:48;12.02;;;3.03;;
9671;SDS011;4874;43.568;27.824;2023-03-17T13:08:22;13.18;;;2.50;;
9671;SDS011;4874;43.568;27.824;2023-03-17T13:13:43;5.75;;;2.60;;
9671;SDS011;4874;43.568;27.824;2023-03-17T13:16:27;5.78;;;2.85;;
9671;SDS011;4874;43.568;27.824;2023-03-17T13:21:33;6.00;;;2.28;;
9671;SDS011;4874;43.568;27.824;2023-03-17T13:40:34;26.80;;;4.15;;
9671;SDS011;4874;43.568;27.824;2023-03-17T13:43:07;6.32;;;2.38;;
9671;SDS011;4874;43.568;27.824;2023-03-17T13:45:47;5.13;;;1.58;;
9671;SDS011;4874;43.568;27.824;2023-03-17T13:53:52;11.68;;;4.88;;
9671;SDS011;4874;43.568;27.824;2023-03-17T14:01:47;5.38;;;2.10;;
9671;SDS011;4874;43.568;27.824;2023-03-17T14:04:42;5.32;;;1.90;;
9671;SDS011;4874;43.568;27.824;2023-03-17T14:07:18;5.38;;;1.80;;
9671;SDS011;4874;43.568;27.824;2023-03-17T14:09:50;3.15;;;1.70;;
9671;SDS011;4874;43.568;27.824;2023-03-17T14:15:14;8.00;;;1.88;;
9671;SDS011;4874;43.568;27.824;2023-03-17T14:17:51;4.38;;;1.75;;
9671;SDS011;4874;43.568;27.824;2023-03-17T14:20:23;7.47;;;2.08;;
9671;SDS011;4874;43.568;27.824;2023-03-17T14:22:57;5.88;;;2.58;;
9671;SDS011;4874;43.568;27.824;2023-03-17T14:25:30;4.53;;;2.00;;
9671;SDS011;4874;43.568;27.824;2023-03-17T14:27:59;3.70;;;1.67;;
9671;SDS011;4874;43.568;27.824;2023-03-17T14:30:31;4.30;;;1.77;;
9671;SDS011;4874;43.568;27.824;2023-03-17T14:33:12;5.13;;;1.70;;
9671;SDS011;4874;43.568;27.824;2023-03-17T14:35:48;7.20;;;2.78;;
9671;SDS011;4874;43.568;27.824;2023-03-17T14:38:23;8.40;;;2.63;;
9671;SDS011;4874;43.568;27.824;2023-03-17T14:41:02;5.30;;;2.05;;
9671;SDS011;4874;43.568;27.824;2023-03-17T14:43:32;7.75;;;2.38;;
9671;SDS011;4874;43.568;27.824;2023-03-17T14:46:02;5.28;;;2.25;;
9671;SDS011;4874;43.568;27.824;2023-03-17T14:48:32;6.05;;;2.20;;
9671;SDS011;4874;43.568;27.824;2023-03-17T14:51:05;6.63;;;2.50;;
9671;SDS011;4874;43.568;27.824;2023-03-17T14:53:35;7.13;;;2.58;;
9671;SDS011;4874;43.568;27.824;2023-03-17T14:56:05;6.10;;;2.15;;
9671;SDS011;4874;43.568;27.824;2023-03-17T14:58:38;3.97;;;2.33;;
9671;SDS011;4874;43.568;27.824;2023-03-17T15:01:07;7.53;;;2.55;;
9671;SDS011;4874;43.568;27.824;2023-03-17T15:04:03;6.68;;;2.40;;
9671;SDS011;4874;43.568;27.824;2023-03-17T15:06:30;5.03;;;2.10;;
9671;SDS011;4874;43.568;27.824;2023-03-17T15:09:03;5.43;;;2.03;;
9671;SDS011;4874;43.568;27.824;2023-03-17T15:12:06;7.95;;;2.63;;
9671;SDS011;4874;43.568;27.824;2023-03-17T15:14:43;6.90;;;2.28;;
9671;SDS011;4874;43.568;27.824;2023-03-17T15:17:18;5.70;;;1.80;;
9671;SDS011;4874;43.568;27.824;2023-03-17T15:19:48;5.30;;;1.88;;
9671;SDS011;4874;43.568;27.824;2023-03-17T15:27:47;4.40;;;2.33;;
9671;SDS011;4874;43.568;27.824;2023-03-17T15:30:14;7.03;;;3.20;;
9671;SDS011;4874;43.568;27.824;2023-03-17T15:32:42;5.28;;;1.88;;
9671;SDS011;4874;43.568;27.824;2023-03-17T15:35:10;5.28;;;1.70;;
9671;SDS011;4874;43.568;27.824;2023-03-17T15:37:38;8.77;;;1.75;;
9671;SDS011;4874;43.568;27.824;2023-03-17T15:40:06;6.75;;;2.63;;
9671;SDS011;4874;43.568;27.824;2023-03-17T15:42:35;5.35;;;2.13;;
9671;SDS011;4874;43.568;27.824;2023-03-17T15:45:03;6.38;;;2.75;;
9671;SDS011;4874;43.568;27.824;2023-03-17T15:47:32;6.95;;;2.40;;
9671;SDS011;4874;43.568;27.824;2023-03-17T15:50:22;7.63;;;2.40;;
9671;SDS011;4874;43.568;27.824;2023-03-17T15:52:51;8.65;;;2.60;;
9671;SDS011;4874;43.568;27.824;2023-03-17T15:55:27;6.07;;;2.30;;
9671;SDS011;4874;43.568;27.824;2023-03-17T15:57:58;7.00;;;2.60;;
9671;SDS011;4874;43.568;27.824;2023-03-17T16:00:26;7.43;;;2.67;;
9671;SDS011;4874;43.568;27.824;2023-03-17T16:02:56;5.55;;;2.70;;
9671;SDS011;4874;43.568;27.824;2023-03-17T16:05:26;5.00;;;2.38;;
9671;SDS011;4874;43.568;27.824;2023-03-17T16:07:55;6.40;;;2.97;;
9671;SDS011;4874;43.568;27.824;2023-03-17T16:10:26;7.38;;;3.20;;
9671;SDS011;4874;43.568;27.824;2023-03-17T16:12:55;10.35;;;4.63;;
9671;SDS011;4874;43.568;27.824;2023-03-17T16:22:46;7.80;;;3.80;;
9671;SDS011;4874;43.568;27.824;2023-03-17T16:27:55;9.43;;;3.65;;
9671;SDS011;4874;43.568;27.824;2023-03-17T16:30:24;9.57;;;3.78;;
9671;SDS011;4874;43.568;27.824;2023-03-17T16:32:55;8.25;;;3.50;;
9671;SDS011;4874;43.568;27.824;2023-03-17T16:35:25;9.45;;;3.85;;
9671;SDS011;4874;43.568;27.824;2023-03-17T16:37:52;8.60;;;3.17;;
9671;SDS011;4874;43.568;27.824;2023-03-17T16:40:23;7.10;;;3.13;;
9671;SDS011;4874;43.568;27.824;2023-03-17T16:42:52;9.77;;;3.63;;
9671;SDS011;4874;43.568;27.824;2023-03-17T16:45:28;7.82;;;4.13;;
9671;SDS011;4874;43.568;27.824;2023-03-17T16:48:01;9.40;;;3.95;;
9671;SDS011;4874;43.568;27.824;2023-03-17T16:50:30;7.63;;;3.78;;
9671;SDS011;4874;43.568;27.824;2023-03-17T16:52:58;8.55;;;4.43;;
9671;SDS011;4874;43.568;27.824;2023-03-17T16:55:26;10.57;;;5.47;;
9671;SDS011;4874;43.568;27.824;2023-03-17T16:57:55;12.70;;;5.35;;
9671;SDS011;4874;43.568;27.824;2023-03-17T17:00:25;12.50;;;5.50;;
9671;SDS011;4874;43.568;27.824;2023-03-17T17:02:54;9.10;;;4.57;;
9671;SDS011;4874;43.568;27.824;2023-03-17T17:05:25;11.13;;;5.47;;
9671;SDS011;4874;43.568;27.824;2023-03-17T17:07:55;12.50;;;5.30;;
9671;SDS011;4874;43.568;27.824;2023-03-17T17:10:23;10.82;;;3.75;;
9671;SDS011;4874;43.568;27.824;2023-03-17T17:12:52;8.90;;;3.58;;
9671;SDS011;4874;43.568;27.824;2023-03-17T17:15:20;6.13;;;3.10;;
9671;SDS011;4874;43.568;27.824;2023-03-17T17:17:49;7.45;;;2.85;;
9671;SDS011;4874;43.568;27.824;2023-03-17T17:22:51;7.78;;;3.60;;
9671;SDS011;4874;43.568;27.824;2023-03-17T17:25:17;6.00;;;3.05;;
9671;SDS011;4874;43.568;27.824;2023-03-17T17:30:13;6.30;;;3.50;;
9671;SDS011;4874;43.568;27.824;2023-03-17T17:32:43;9.68;;;4.05;;
9671;SDS011;4874;43.568;27.824;2023-03-17T17:35:10;7.95;;;3.40;;
9671;SDS011;4874;43.568;27.824;2023-03-17T17:37:38;6.80;;;3.42;;
9671;SDS011;4874;43.568;27.824;2023-03-17T17:45:00;9.27;;;4.47;;
9671;SDS011;4874;43.568;27.824;2023-03-17T17:47:27;11.15;;;4.40;;
9671;SDS011;4874;43.568;27.824;2023-03-17T17:49:57;9.88;;;3.90;;
9671;SDS011;4874;43.568;27.824;2023-03-17T17:52:24;9.40;;;3.63;;
9671;SDS011;4874;43.568;27.824;2023-03-17T17:57:18;10.38;;;5.15;;
9671;SDS011;4874;43.568;27.824;2023-03-17T17:59:45;9.00;;;3.55;;
9671;SDS011;4874;43.568;27.824;2023-03-17T18:02:12;11.95;;;4.57;;
9671;SDS011;4874;43.568;27.824;2023-03-17T18:04:40;9.70;;;3.72;;
9671;SDS011;4874;43.568;27.824;2023-03-17T18:07:08;9.90;;;3.78;;
9671;SDS011;4874;43.568;27.824;2023-03-17T18:12:02;7.95;;;3.15;;
9671;SDS011;4874;43.568;27.824;2023-03-17T18:14:30;8.43;;;3.42;;
9671;SDS011;4874;43.568;27.824;2023-03-17T18:19:23;8.45;;;3.72;;
9671;SDS011;4874;43.568;27.824;2023-03-17T18:21:51;7.35;;;3.70;;
9671;SDS011;4874;43.568;27.824;2023-03-17T18:24:18;8.48;;;3.80;;
9671;SDS011;4874;43.568;27.824;2023-03-17T18:26:47;10.40;;;3.72;;
9671;SDS011;4874;43.568;27.824;2023-03-17T18:29:16;6.50;;;2.97;;
9671;SDS011;4874;43.568;27.824;2023-03-17T18:31:48;7.25;;;2.95;;
9671;SDS011;4874;43.568;27.824;2023-03-17T18:34:21;6.70;;;3.03;;
9671;SDS011;4874;43.568;27.824;2023-03-17T18:36:51;7.43;;;3.28;;
9671;SDS011;4874;43.568;27.824;2023-03-17T18:39:20;8.70;;;3.65;;